Londonderry, New Hampshire
Current Conditions -  °F | °C
As of 1:53 PM on Friday 21 Nov 2014 (Local Time) from KMHT Reporting Station
Broken Clouds Broken Clouds  
Wind Chill: 20°   Ceiling: 5000
Heat Index: 31°   Visibility: 10mi
Dew Point:   Wind: 16mph
Humidity: 40%   Direction: 330°NNW
Pressure: 30.14"   Gusts: 24mph
Location:  42.87°N, 71.37°W
Report Text: KMHT 211853Z 33014G21KT 10SM BKN050 M01/M13 A3014 RMK AO2 SLP227 T10061128
Loading
Personal Weather Stations






























Interactive Weather Map New forecast layout! Learn more

10-Day Weather Forecast

Advertisements
Track Severe Weather on mobile